sensor_id;sensor_type;location;lat;lon;timestamp;P1;durP1;ratioP1;P2;durP2;ratioP2
45236;SDS011;30973;51.442;3.580;2023-04-03T00:01:13;5.63;;;2.85;;
45236;SDS011;30973;51.442;3.580;2023-04-03T00:03:40;7.13;;;2.72;;
45236;SDS011;30973;51.442;3.580;2023-04-03T00:06:08;5.40;;;2.47;;
45236;SDS011;30973;51.442;3.580;2023-04-03T00:08:36;5.35;;;2.75;;
45236;SDS011;30973;51.442;3.580;2023-04-03T00:11:03;6.05;;;2.75;;
45236;SDS011;30973;51.442;3.580;2023-04-03T00:13:30;5.88;;;2.63;;
45236;SDS011;30973;51.442;3.580;2023-04-03T00:15:57;4.80;;;2.60;;
45236;SDS011;30973;51.442;3.580;2023-04-03T00:18:23;5.97;;;3.05;;
45236;SDS011;30973;51.442;3.580;2023-04-03T00:20:50;6.30;;;3.17;;
45236;SDS011;30973;51.442;3.580;2023-04-03T00:23:17;5.70;;;2.67;;
45236;SDS011;30973;51.442;3.580;2023-04-03T00:25:44;4.65;;;2.63;;
45236;SDS011;30973;51.442;3.580;2023-04-03T00:28:11;5.50;;;2.67;;
45236;SDS011;30973;51.442;3.580;2023-04-03T00:30:37;5.05;;;2.45;;
45236;SDS011;30973;51.442;3.580;2023-04-03T00:33:05;4.32;;;2.67;;
45236;SDS011;30973;51.442;3.580;2023-04-03T00:35:34;4.55;;;2.92;;
45236;SDS011;30973;51.442;3.580;2023-04-03T00:38:01;4.72;;;2.55;;
45236;SDS011;30973;51.442;3.580;2023-04-03T00:40:27;4.53;;;2.60;;
45236;SDS011;30973;51.442;3.580;2023-04-03T00:42:55;4.53;;;2.30;;
45236;SDS011;30973;51.442;3.580;2023-04-03T00:45:26;4.85;;;2.47;;
45236;SDS011;30973;51.442;3.580;2023-04-03T00:47:53;5.65;;;2.45;;
45236;SDS011;30973;51.442;3.580;2023-04-03T00:50:20;4.97;;;2.35;;
45236;SDS011;30973;51.442;3.580;2023-04-03T00:52:47;5.45;;;2.28;;
45236;SDS011;30973;51.442;3.580;2023-04-03T00:55:15;4.18;;;2.00;;
45236;SDS011;30973;51.442;3.580;2023-04-03T00:57:42;4.15;;;2.38;;
45236;SDS011;30973;51.442;3.580;2023-04-03T01:00:11;4.82;;;2.30;;
45236;SDS011;30973;51.442;3.580;2023-04-03T01:02:38;6.43;;;2.17;;
45236;SDS011;30973;51.442;3.580;2023-04-03T01:05:08;4.68;;;1.90;;
45236;SDS011;30973;51.442;3.580;2023-04-03T01:07:36;2.97;;;1.98;;
45236;SDS011;30973;51.442;3.580;2023-04-03T01:10:05;3.88;;;1.95;;
45236;SDS011;30973;51.442;3.580;2023-04-03T01:12:34;4.30;;;2.22;;
45236;SDS011;30973;51.442;3.580;2023-04-03T01:15:11;7.10;;;1.92;;
45236;SDS011;30973;51.442;3.580;2023-04-03T01:17:51;3.70;;;1.73;;
45236;SDS011;30973;51.442;3.580;2023-04-03T01:25:19;6.95;;;1.85;;
45236;SDS011;30973;51.442;3.580;2023-04-03T01:27:46;3.50;;;1.85;;
45236;SDS011;30973;51.442;3.580;2023-04-03T01:30:13;3.08;;;1.90;;
45236;SDS011;30973;51.442;3.580;2023-04-03T01:32:42;4.93;;;1.80;;
45236;SDS011;30973;51.442;3.580;2023-04-03T01:35:11;3.05;;;1.60;;
45236;SDS011;30973;51.442;3.580;2023-04-03T01:37:38;2.75;;;1.83;;
45236;SDS011;30973;51.442;3.580;2023-04-03T01:40:05;3.53;;;1.48;;
45236;SDS011;30973;51.442;3.580;2023-04-03T01:42:32;3.60;;;1.80;;
45236;SDS011;30973;51.442;3.580;2023-04-03T01:44:59;2.38;;;1.52;;
45236;SDS011;30973;51.442;3.580;2023-04-03T01:47:26;2.42;;;1.33;;
45236;SDS011;30973;51.442;3.580;2023-04-03T01:49:53;4.07;;;1.80;;
45236;SDS011;30973;51.442;3.580;2023-04-03T01:52:20;2.55;;;1.35;;
45236;SDS011;30973;51.442;3.580;2023-04-03T01:54:47;3.75;;;1.30;;
45236;SDS011;30973;51.442;3.580;2023-04-03T01:57:13;4.05;;;1.88;;
45236;SDS011;30973;51.442;3.580;2023-04-03T01:59:41;5.22;;;2.15;;
45236;SDS011;30973;51.442;3.580;2023-04-03T02:02:08;3.33;;;1.50;;
45236;SDS011;30973;51.442;3.580;2023-04-03T02:04:35;2.78;;;1.40;;
45236;SDS011;30973;51.442;3.580;2023-04-03T02:07:02;3.70;;;2.13;;
45236;SDS011;30973;51.442;3.580;2023-04-03T02:09:29;2.45;;;1.40;;
45236;SDS011;30973;51.442;3.580;2023-04-03T02:11:56;2.40;;;1.35;;
45236;SDS011;30973;51.442;3.580;2023-04-03T02:14:23;2.80;;;1.45;;
45236;SDS011;30973;51.442;3.580;2023-04-03T02:16:50;3.00;;;1.70;;
45236;SDS011;30973;51.442;3.580;2023-04-03T02:19:16;5.35;;;1.70;;
45236;SDS011;30973;51.442;3.580;2023-04-03T02:21:43;4.05;;;1.58;;
45236;SDS011;30973;51.442;3.580;2023-04-03T02:24:10;4.20;;;1.63;;
45236;SDS011;30973;51.442;3.580;2023-04-03T02:26:36;5.40;;;1.65;;
45236;SDS011;30973;51.442;3.580;2023-04-03T02:29:03;2.83;;;1.48;;
45236;SDS011;30973;51.442;3.580;2023-04-03T02:31:30;4.30;;;1.95;;
45236;SDS011;30973;51.442;3.580;2023-04-03T02:34:01;5.40;;;1.80;;
45236;SDS011;30973;51.442;3.580;2023-04-03T02:36:28;2.80;;;1.70;;
45236;SDS011;30973;51.442;3.580;2023-04-03T02:39:00;3.72;;;1.55;;
45236;SDS011;30973;51.442;3.580;2023-04-03T02:41:27;2.65;;;1.55;;
45236;SDS011;30973;51.442;3.580;2023-04-03T02:44:01;3.00;;;1.50;;
45236;SDS011;30973;51.442;3.580;2023-04-03T02:46:28;2.72;;;1.77;;
45236;SDS011;30973;51.442;3.580;2023-04-03T02:48:55;3.80;;;1.60;;
45236;SDS011;30973;51.442;3.580;2023-04-03T02:51:22;4.57;;;1.98;;
45236;SDS011;30973;51.442;3.580;2023-04-03T02:53:52;3.92;;;1.83;;
45236;SDS011;30973;51.442;3.580;2023-04-03T02:56:23;3.72;;;1.90;;
45236;SDS011;30973;51.442;3.580;2023-04-03T02:58:51;4.47;;;1.88;;
45236;SDS011;30973;51.442;3.580;2023-04-03T03:01:18;4.50;;;2.03;;
45236;SDS011;30973;51.442;3.580;2023-04-03T03:03:45;3.58;;;2.10;;
45236;SDS011;30973;51.442;3.580;2023-04-03T03:06:13;2.97;;;1.80;;
45236;SDS011;30973;51.442;3.580;2023-04-03T03:08:40;3.58;;;1.85;;
45236;SDS011;30973;51.442;3.580;2023-04-03T03:11:07;3.63;;;1.63;;
45236;SDS011;30973;51.442;3.580;2023-04-03T03:13:34;2.88;;;1.88;;
45236;SDS011;30973;51.442;3.580;2023-04-03T03:16:01;6.50;;;2.05;;
45236;SDS011;30973;51.442;3.580;2023-04-03T03:18:28;4.80;;;2.20;;
45236;SDS011;30973;51.442;3.580;2023-04-03T03:20:55;2.67;;;1.80;;
45236;SDS011;30973;51.442;3.580;2023-04-03T03:23:23;2.92;;;2.03;;
45236;SDS011;30973;51.442;3.580;2023-04-03T03:25:53;4.47;;;2.28;;
45236;SDS011;30973;51.442;3.580;2023-04-03T03:28:20;5.22;;;2.42;;
45236;SDS011;30973;51.442;3.580;2023-04-03T03:30:48;4.43;;;2.20;;
45236;SDS011;30973;51.442;3.580;2023-04-03T03:33:16;4.00;;;2.20;;
45236;SDS011;30973;51.442;3.580;2023-04-03T03:35:43;2.75;;;1.60;;
45236;SDS011;30973;51.442;3.580;2023-04-03T03:38:10;4.57;;;2.20;;
45236;SDS011;30973;51.442;3.580;2023-04-03T03:40:37;3.42;;;2.20;;
45236;SDS011;30973;51.442;3.580;2023-04-03T03:43:05;5.15;;;2.17;;
45236;SDS011;30973;51.442;3.580;2023-04-03T03:45:32;5.07;;;2.55;;
45236;SDS011;30973;51.442;3.580;2023-04-03T03:47:59;6.22;;;2.40;;
45236;SDS011;30973;51.442;3.580;2023-04-03T03:50:26;3.92;;;2.17;;
45236;SDS011;30973;51.442;3.580;2023-04-03T03:52:52;3.92;;;1.80;;
45236;SDS011;30973;51.442;3.580;2023-04-03T03:55:19;6.35;;;2.50;;
45236;SDS011;30973;51.442;3.580;2023-04-03T03:57:50;4.57;;;2.40;;
45236;SDS011;30973;51.442;3.580;2023-04-03T04:00:17;6.18;;;2.22;;
45236;SDS011;30973;51.442;3.580;2023-04-03T04:02:50;4.65;;;2.17;;
45236;SDS011;30973;51.442;3.580;2023-04-03T04:05:20;3.45;;;2.08;;
45236;SDS011;30973;51.442;3.580;2023-04-03T04:07:47;3.72;;;2.13;;
45236;SDS011;30973;51.442;3.580;2023-04-03T04:10:14;2.92;;;2.08;;
45236;SDS011;30973;51.442;3.580;2023-04-03T04:12:43;4.38;;;2.47;;
45236;SDS011;30973;51.442;3.580;2023-04-03T04:15:10;4.25;;;1.77;;
45236;SDS011;30973;51.442;3.580;2023-04-03T04:17:38;3.72;;;2.22;;
45236;SDS011;30973;51.442;3.580;2023-04-03T04:20:10;5.05;;;2.35;;
45236;SDS011;30973;51.442;3.580;2023-04-03T04:22:38;5.43;;;2.10;;
45236;SDS011;30973;51.442;3.580;2023-04-03T04:25:05;4.63;;;2.50;;
45236;SDS011;30973;51.442;3.580;2023-04-03T04:27:33;4.35;;;2.20;;
45236;SDS011;30973;51.442;3.580;2023-04-03T04:30:01;2.90;;;1.83;;
45236;SDS011;30973;51.442;3.580;2023-04-03T04:32:27;4.75;;;2.63;;
45236;SDS011;30973;51.442;3.580;2023-04-03T04:34:54;4.03;;;2.33;;
45236;SDS011;30973;51.442;3.580;2023-04-03T04:37:22;4.50;;;2.50;;
45236;SDS011;30973;51.442;3.580;2023-04-03T04:39:48;6.43;;;2.35;;
45236;SDS011;30973;51.442;3.580;2023-04-03T04:42:15;3.45;;;2.20;;
45236;SDS011;30973;51.442;3.580;2023-04-03T04:44:45;5.47;;;2.60;;
45236;SDS011;30973;51.442;3.580;2023-04-03T04:47:13;3.88;;;2.17;;
45236;SDS011;30973;51.442;3.580;2023-04-03T04:49:40;3.40;;;2.65;;
45236;SDS011;30973;51.442;3.580;2023-04-03T04:52:09;4.35;;;2.20;;
45236;SDS011;30973;51.442;3.580;2023-04-03T04:54:38;5.03;;;2.47;;
45236;SDS011;30973;51.442;3.580;2023-04-03T04:57:05;3.80;;;2.40;;
45236;SDS011;30973;51.442;3.580;2023-04-03T04:59:32;4.13;;;2.50;;
45236;SDS011;30973;51.442;3.580;2023-04-03T05:02:00;5.60;;;2.50;;
45236;SDS011;30973;51.442;3.580;2023-04-03T05:04:27;4.40;;;2.72;;
45236;SDS011;30973;51.442;3.580;2023-04-03T05:07:01;5.13;;;3.00;;
45236;SDS011;30973;51.442;3.580;2023-04-03T05:09:30;6.55;;;2.15;;
45236;SDS011;30973;51.442;3.580;2023-04-03T05:11:56;5.10;;;2.67;;
45236;SDS011;30973;51.442;3.580;2023-04-03T05:14:26;8.48;;;2.60;;
45236;SDS011;30973;51.442;3.580;2023-04-03T05:16:59;4.72;;;2.40;;
45236;SDS011;30973;51.442;3.580;2023-04-03T05:19:28;3.75;;;2.22;;
45236;SDS011;30973;51.442;3.580;2023-04-03T05:21:56;4.95;;;2.58;;
45236;SDS011;30973;51.442;3.580;2023-04-03T05:24:23;4.40;;;2.55;;
45236;SDS011;30973;51.442;3.580;2023-04-03T05:26:50;5.18;;;2.70;;
45236;SDS011;30973;51.442;3.580;2023-04-03T05:29:17;4.85;;;2.70;;
45236;SDS011;30973;51.442;3.580;2023-04-03T05:31:45;5.60;;;2.63;;
45236;SDS011;30973;51.442;3.580;2023-04-03T05:34:12;5.70;;;2.33;;
45236;SDS011;30973;51.442;3.580;2023-04-03T05:36:40;5.35;;;2.60;;
45236;SDS011;30973;51.442;3.580;2023-04-03T05:39:08;6.20;;;3.28;;
45236;SDS011;30973;51.442;3.580;2023-04-03T05:41:38;7.50;;;2.88;;
45236;SDS011;30973;51.442;3.580;2023-04-03T05:44:05;4.95;;;2.88;;
45236;SDS011;30973;51.442;3.580;2023-04-03T05:46:32;7.13;;;2.78;;
45236;SDS011;30973;51.442;3.580;2023-04-03T05:49:03;11.80;;;3.10;;
45236;SDS011;30973;51.442;3.580;2023-04-03T05:51:34;4.00;;;2.88;;
45236;SDS011;30973;51.442;3.580;2023-04-03T05:54:27;4.55;;;2.55;;
45236;SDS011;30973;51.442;3.580;2023-04-03T05:57:14;6.15;;;2.65;;
45236;SDS011;30973;51.442;3.580;2023-04-03T05:59:43;5.45;;;2.78;;
45236;SDS011;30973;51.442;3.580;2023-04-03T06:02:14;5.13;;;2.67;;
45236;SDS011;30973;51.442;3.580;2023-04-03T06:04:42;5.20;;;2.65;;
45236;SDS011;30973;51.442;3.580;2023-04-03T06:07:13;5.35;;;2.75;;
45236;SDS011;30973;51.442;3.580;2023-04-03T06:09:40;6.45;;;2.85;;
45236;SDS011;30973;51.442;3.580;2023-04-03T06:12:08;4.55;;;2.65;;
45236;SDS011;30973;51.442;3.580;2023-04-03T06:14:35;7.72;;;3.17;;
45236;SDS011;30973;51.442;3.580;2023-04-03T06:17:02;6.43;;;2.78;;
45236;SDS011;30973;51.442;3.580;2023-04-03T06:19:29;5.38;;;2.80;;
45236;SDS011;30973;51.442;3.580;2023-04-03T06:21:57;5.35;;;2.80;;
45236;SDS011;30973;51.442;3.580;2023-04-03T06:24:24;3.50;;;2.40;;
45236;SDS011;30973;51.442;3.580;2023-04-03T06:26:51;6.80;;;2.95;;
45236;SDS011;30973;51.442;3.580;2023-04-03T06:29:19;4.22;;;2.80;;
45236;SDS011;30973;51.442;3.580;2023-04-03T06:31:46;5.40;;;2.75;;
45236;SDS011;30973;51.442;3.580;2023-04-03T06:34:13;4.75;;;3.03;;
45236;SDS011;30973;51.442;3.580;2023-04-03T06:36:40;4.45;;;3.05;;
45236;SDS011;30973;51.442;3.580;2023-04-03T06:39:08;4.47;;;2.55;;
45236;SDS011;30973;51.442;3.580;2023-04-03T06:41:35;5.18;;;2.67;;
45236;SDS011;30973;51.442;3.580;2023-04-03T06:44:02;4.43;;;2.50;;
45236;SDS011;30973;51.442;3.580;2023-04-03T06:46:29;5.65;;;2.75;;
45236;SDS011;30973;51.442;3.580;2023-04-03T06:48:56;4.18;;;2.60;;
45236;SDS011;30973;51.442;3.580;2023-04-03T06:51:24;5.15;;;2.60;;
45236;SDS011;30973;51.442;3.580;2023-04-03T06:53:52;6.32;;;3.08;;
45236;SDS011;30973;51.442;3.580;2023-04-03T06:56:19;6.28;;;3.00;;
45236;SDS011;30973;51.442;3.580;2023-04-03T06:58:47;5.68;;;3.28;;
45236;SDS011;30973;51.442;3.580;2023-04-03T07:01:15;8.20;;;3.45;;
45236;SDS011;30973;51.442;3.580;2023-04-03T07:03:43;6.25;;;3.05;;
45236;SDS011;30973;51.442;3.580;2023-04-03T07:06:11;5.18;;;3.03;;
45236;SDS011;30973;51.442;3.580;2023-04-03T07:08:38;6.03;;;2.83;;
45236;SDS011;30973;51.442;3.580;2023-04-03T07:11:05;4.90;;;2.85;;
45236;SDS011;30973;51.442;3.580;2023-04-03T07:13:32;4.68;;;2.53;;
45236;SDS011;30973;51.442;3.580;2023-04-03T07:15:59;5.57;;;3.17;;
45236;SDS011;30973;51.442;3.580;2023-04-03T07:18:25;4.45;;;2.80;;
45236;SDS011;30973;51.442;3.580;2023-04-03T07:20:52;5.20;;;2.80;;
45236;SDS011;30973;51.442;3.580;2023-04-03T07:23:19;5.35;;;3.15;;
45236;SDS011;30973;51.442;3.580;2023-04-03T07:25:46;4.25;;;2.88;;
45236;SDS011;30973;51.442;3.580;2023-04-03T07:28:13;4.25;;;2.75;;
45236;SDS011;30973;51.442;3.580;2023-04-03T07:33:10;7.18;;;3.20;;
45236;SDS011;30973;51.442;3.580;2023-04-03T07:35:38;4.07;;;2.53;;
45236;SDS011;30973;51.442;3.580;2023-04-03T07:38:05;4.40;;;2.80;;
45236;SDS011;30973;51.442;3.580;2023-04-03T07:40:33;4.78;;;2.78;;
45236;SDS011;30973;51.442;3.580;2023-04-03T07:43:01;4.57;;;2.75;;
45236;SDS011;30973;51.442;3.580;2023-04-03T07:45:28;4.30;;;2.97;;
45236;SDS011;30973;51.442;3.580;2023-04-03T07:47:55;6.90;;;2.60;;
45236;SDS011;30973;51.442;3.580;2023-04-03T07:50:22;5.35;;;3.10;;
45236;SDS011;30973;51.442;3.580;2023-04-03T07:52:49;4.55;;;2.60;;
45236;SDS011;30973;51.442;3.580;2023-04-03T07:55:17;4.63;;;3.15;;
45236;SDS011;30973;51.442;3.580;2023-04-03T07:57:44;5.70;;;2.70;;
45236;SDS011;30973;51.442;3.580;2023-04-03T08:00:11;5.32;;;2.97;;
45236;SDS011;30973;51.442;3.580;2023-04-03T08:02:39;4.88;;;3.13;;
45236;SDS011;30973;51.442;3.580;2023-04-03T08:05:07;6.45;;;3.15;;
45236;SDS011;30973;51.442;3.580;2023-04-03T08:07:34;5.45;;;2.80;;
45236;SDS011;30973;51.442;3.580;2023-04-03T08:10:03;4.72;;;2.67;;
45236;SDS011;30973;51.442;3.580;2023-04-03T08:12:31;5.40;;;3.05;;
45236;SDS011;30973;51.442;3.580;2023-04-03T08:15:07;5.95;;;3.17;;
45236;SDS011;30973;51.442;3.580;2023-04-03T08:17:34;3.67;;;2.78;;
45236;SDS011;30973;51.442;3.580;2023-04-03T08:20:02;5.93;;;3.00;;
45236;SDS011;30973;51.442;3.580;2023-04-03T08:22:29;4.70;;;3.03;;
45236;SDS011;30973;51.442;3.580;2023-04-03T08:24:57;7.35;;;2.80;;
45236;SDS011;30973;51.442;3.580;2023-04-03T08:27:25;7.50;;;3.30;;
45236;SDS011;30973;51.442;3.580;2023-04-03T08:29:54;7.05;;;3.10;;
45236;SDS011;30973;51.442;3.580;2023-04-03T08:32:22;4.10;;;2.45;;
45236;SDS011;30973;51.442;3.580;2023-04-03T08:34:49;5.68;;;2.38;;
45236;SDS011;30973;51.442;3.580;2023-04-03T08:37:16;3.75;;;2.05;;
45236;SDS011;30973;51.442;3.580;2023-04-03T08:39:43;3.97;;;2.22;;
45236;SDS011;30973;51.442;3.580;2023-04-03T08:45:07;6.85;;;2.58;;
45236;SDS011;30973;51.442;3.580;2023-04-03T08:47:44;5.53;;;2.25;;
45236;SDS011;30973;51.442;3.580;2023-04-03T08:50:13;6.60;;;2.70;;
45236;SDS011;30973;51.442;3.580;2023-04-03T08:52:44;5.57;;;2.42;;
45236;SDS011;30973;51.442;3.580;2023-04-03T08:55:23;4.20;;;2.38;;
45236;SDS011;30973;51.442;3.580;2023-04-03T08:57:53;5.00;;;2.55;;
45236;SDS011;30973;51.442;3.580;2023-04-03T09:00:24;6.70;;;2.60;;
45236;SDS011;30973;51.442;3.580;2023-04-03T09:02:52;4.82;;;1.98;;
45236;SDS011;30973;51.442;3.580;2023-04-03T09:05:20;4.72;;;1.92;;
45236;SDS011;30973;51.442;3.580;2023-04-03T09:10:24;4.22;;;1.70;;
45236;SDS011;30973;51.442;3.580;2023-04-03T09:15:41;4.45;;;1.80;;
45236;SDS011;30973;51.442;3.580;2023-04-03T09:18:13;3.42;;;1.83;;
45236;SDS011;30973;51.442;3.580;2023-04-03T09:23:22;5.60;;;2.00;;
45236;SDS011;30973;51.442;3.580;2023-04-03T09:25:52;4.75;;;1.67;;
45236;SDS011;30973;51.442;3.580;2023-04-03T09:28:19;6.18;;;1.70;;
45236;SDS011;30973;51.442;3.580;2023-04-03T09:30:46;3.92;;;1.80;;
45236;SDS011;30973;51.442;3.580;2023-04-03T09:33:13;3.55;;;1.50;;
45236;SDS011;30973;51.442;3.580;2023-04-03T09:35:40;3.70;;;1.90;;
45236;SDS011;30973;51.442;3.580;2023-04-03T09:38:18;3.90;;;1.70;;
45236;SDS011;30973;51.442;3.580;2023-04-03T09:40:47;4.28;;;1.60;;
45236;SDS011;30973;51.442;3.580;2023-04-03T09:45:48;4.20;;;2.00;;
45236;SDS011;30973;51.442;3.580;2023-04-03T09:48:16;4.30;;;1.58;;
45236;SDS011;30973;51.442;3.580;2023-04-03T09:53:29;4.20;;;1.52;;
45236;SDS011;30973;51.442;3.580;2023-04-03T09:55:56;6.25;;;1.90;;
45236;SDS011;30973;51.442;3.580;2023-04-03T10:00:55;4.35;;;1.60;;
45236;SDS011;30973;51.442;3.580;2023-04-03T10:03:27;2.92;;;1.92;;
45236;SDS011;30973;51.442;3.580;2023-04-03T10:05:54;2.95;;;1.30;;
45236;SDS011;30973;51.442;3.580;2023-04-03T10:08:23;3.42;;;1.55;;
45236;SDS011;30973;51.442;3.580;2023-04-03T10:11:10;3.85;;;1.60;;
45236;SDS011;30973;51.442;3.580;2023-04-03T10:13:49;4.25;;;1.65;;
45236;SDS011;30973;51.442;3.580;2023-04-03T10:16:17;3.22;;;1.60;;
45236;SDS011;30973;51.442;3.580;2023-04-03T10:32:01;3.95;;;1.60;;
45236;SDS011;30973;51.442;3.580;2023-04-03T10:34:33;6.22;;;1.65;;
45236;SDS011;30973;51.442;3.580;2023-04-03T10:37:09;2.80;;;1.60;;
45236;SDS011;30973;51.442;3.580;2023-04-03T10:39:40;4.30;;;1.50;;
45236;SDS011;30973;51.442;3.580;2023-04-03T10:42:18;6.00;;;1.70;;
45236;SDS011;30973;51.442;3.580;2023-04-03T10:47:31;3.50;;;1.33;;
45236;SDS011;30973;51.442;3.580;2023-04-03T10:57:57;4.85;;;1.60;;
45236;SDS011;30973;51.442;3.580;2023-04-03T11:00:28;5.47;;;1.65;;
45236;SDS011;30973;51.442;3.580;2023-04-03T11:03:00;3.80;;;1.40;;
45236;SDS011;30973;51.442;3.580;2023-04-03T11:05:45;4.38;;;1.67;;
45236;SDS011;30973;51.442;3.580;2023-04-03T11:08:24;4.05;;;1.90;;
45236;SDS011;30973;51.442;3.580;2023-04-03T11:10:53;2.63;;;1.42;;
45236;SDS011;30973;51.442;3.580;2023-04-03T11:13:22;4.43;;;1.50;;
45236;SDS011;30973;51.442;3.580;2023-04-03T11:15:52;3.65;;;1.27;;
45236;SDS011;30973;51.442;3.580;2023-04-03T11:18:26;2.88;;;1.30;;
45236;SDS011;30973;51.442;3.580;2023-04-03T11:21:07;4.10;;;1.40;;
45236;SDS011;30973;51.442;3.580;2023-04-03T11:23:38;3.22;;;1.15;;
45236;SDS011;30973;51.442;3.580;2023-04-03T11:26:18;3.42;;;1.35;;
45236;SDS011;30973;51.442;3.580;2023-04-03T11:28:45;3.45;;;1.30;;
45236;SDS011;30973;51.442;3.580;2023-04-03T11:31:15;3.88;;;1.52;;
45236;SDS011;30973;51.442;3.580;2023-04-03T11:36:31;2.92;;;1.00;;
45236;SDS011;30973;51.442;3.580;2023-04-03T11:39:25;2.70;;;0.95;;
45236;SDS011;30973;51.442;3.580;2023-04-03T11:41:50;2.08;;;0.98;;
45236;SDS011;30973;51.442;3.580;2023-04-03T11:46:57;4.75;;;1.20;;
45236;SDS011;30973;51.442;3.580;2023-04-03T11:57:23;1.65;;;0.90;;
45236;SDS011;30973;51.442;3.580;2023-04-03T12:02:54;1.75;;;1.00;;
45236;SDS011;30973;51.442;3.580;2023-04-03T12:05:28;3.10;;;1.20;;
45236;SDS011;30973;51.442;3.580;2023-04-03T12:08:15;3.20;;;1.38;;
45236;SDS011;30973;51.442;3.580;2023-04-03T12:10:42;2.97;;;1.20;;
45236;SDS011;30973;51.442;3.580;2023-04-03T12:13:20;3.40;;;1.20;;
45236;SDS011;30973;51.442;3.580;2023-04-03T12:15:48;3.10;;;1.17;;
45236;SDS011;30973;51.442;3.580;2023-04-03T12:21:02;3.42;;;1.48;;
45236;SDS011;30973;51.442;3.580;2023-04-03T12:23:31;2.28;;;1.40;;
45236;SDS011;30973;51.442;3.580;2023-04-03T12:26:00;4.60;;;1.50;;
45236;SDS011;30973;51.442;3.580;2023-04-03T12:28:27;4.93;;;1.40;;
45236;SDS011;30973;51.442;3.580;2023-04-03T12:30:54;2.45;;;1.30;;
45236;SDS011;30973;51.442;3.580;2023-04-03T12:33:28;2.40;;;1.30;;
45236;SDS011;30973;51.442;3.580;2023-04-03T12:36:01;3.28;;;1.88;;
45236;SDS011;30973;51.442;3.580;2023-04-03T12:41:19;3.08;;;1.35;;
45236;SDS011;30973;51.442;3.580;2023-04-03T12:46:22;4.00;;;1.77;;
45236;SDS011;30973;51.442;3.580;2023-04-03T12:51:22;2.80;;;1.10;;
45236;SDS011;30973;51.442;3.580;2023-04-03T12:53:54;2.58;;;1.65;;
45236;SDS011;30973;51.442;3.580;2023-04-03T12:56:25;2.90;;;1.20;;
45236;SDS011;30973;51.442;3.580;2023-04-03T12:58:53;2.63;;;1.20;;
45236;SDS011;30973;51.442;3.580;2023-04-03T13:01:21;1.85;;;1.15;;
45236;SDS011;30973;51.442;3.580;2023-04-03T13:03:53;2.88;;;1.35;;
45236;SDS011;30973;51.442;3.580;2023-04-03T13:06:30;3.97;;;1.48;;
45236;SDS011;30973;51.442;3.580;2023-04-03T13:08:59;3.25;;;1.23;;
45236;SDS011;30973;51.442;3.580;2023-04-03T13:11:36;4.23;;;1.40;;
45236;SDS011;30973;51.442;3.580;2023-04-03T13:14:12;3.00;;;1.15;;
45236;SDS011;30973;51.442;3.580;2023-04-03T13:16:40;4.70;;;1.30;;
45236;SDS011;30973;51.442;3.580;2023-04-03T13:19:16;2.40;;;1.13;;
45236;SDS011;30973;51.442;3.580;2023-04-03T13:21:55;3.65;;;1.30;;
45236;SDS011;30973;51.442;3.580;2023-04-03T13:24:24;3.00;;;1.20;;
45236;SDS011;30973;51.442;3.580;2023-04-03T13:26:51;3.75;;;1.30;;
45236;SDS011;30973;51.442;3.580;2023-04-03T13:29:25;2.13;;;1.10;;
45236;SDS011;30973;51.442;3.580;2023-04-03T13:31:57;3.50;;;1.33;;
45236;SDS011;30973;51.442;3.580;2023-04-03T13:34:26;3.42;;;1.27;;
45236;SDS011;30973;51.442;3.580;2023-04-03T13:36:55;3.85;;;1.50;;
45236;SDS011;30973;51.442;3.580;2023-04-03T13:42:02;2.80;;;1.10;;
45236;SDS011;30973;51.442;3.580;2023-04-03T13:44:31;3.30;;;1.30;;
45236;SDS011;30973;51.442;3.580;2023-04-03T13:47:22;1.40;;;0.98;;
45236;SDS011;30973;51.442;3.580;2023-04-03T13:50:13;3.60;;;1.20;;
45236;SDS011;30973;51.442;3.580;2023-04-03T13:52:38;1.70;;;1.05;;
45236;SDS011;30973;51.442;3.580;2023-04-03T13:55:20;2.33;;;1.02;;
45236;SDS011;30973;51.442;3.580;2023-04-03T14:00:19;1.98;;;0.93;;
45236;SDS011;30973;51.442;3.580;2023-04-03T14:02:47;3.60;;;1.15;;
45236;SDS011;30973;51.442;3.580;2023-04-03T14:05:14;1.20;;;0.85;;
45236;SDS011;30973;51.442;3.580;2023-04-03T14:07:46;2.83;;;1.23;;
45236;SDS011;30973;51.442;3.580;2023-04-03T14:10:13;3.08;;;1.10;;
45236;SDS011;30973;51.442;3.580;2023-04-03T14:12:39;4.85;;;1.13;;
45236;SDS011;30973;51.442;3.580;2023-04-03T14:15:14;2.35;;;1.00;;
45236;SDS011;30973;51.442;3.580;2023-04-03T14:17:42;2.17;;;0.90;;
45236;SDS011;30973;51.442;3.580;2023-04-03T14:20:14;2.33;;;0.90;;
45236;SDS011;30973;51.442;3.580;2023-04-03T14:22:42;2.65;;;0.90;;
45236;SDS011;30973;51.442;3.580;2023-04-03T14:25:09;2.38;;;1.00;;
45236;SDS011;30973;51.442;3.580;2023-04-03T14:27:38;3.03;;;0.90;;
45236;SDS011;30973;51.442;3.580;2023-04-03T14:30:06;2.28;;;0.93;;
45236;SDS011;30973;51.442;3.580;2023-04-03T14:32:33;1.70;;;0.88;;
45236;SDS011;30973;51.442;3.580;2023-04-03T14:35:01;1.38;;;0.88;;
45236;SDS011;30973;51.442;3.580;2023-04-03T14:37:29;2.58;;;0.85;;
45236;SDS011;30973;51.442;3.580;2023-04-03T14:39:57;2.45;;;1.00;;
45236;SDS011;30973;51.442;3.580;2023-04-03T14:42:25;2.72;;;0.80;;
45236;SDS011;30973;51.442;3.580;2023-04-03T14:44:52;1.50;;;0.77;;
45236;SDS011;30973;51.442;3.580;2023-04-03T14:47:20;1.45;;;0.80;;
45236;SDS011;30973;51.442;3.580;2023-04-03T14:49:57;2.08;;;0.90;;
45236;SDS011;30973;51.442;3.580;2023-04-03T14:52:25;3.75;;;0.98;;
45236;SDS011;30973;51.442;3.580;2023-04-03T14:54:53;1.98;;;0.73;;
45236;SDS011;30973;51.442;3.580;2023-04-03T14:57:20;1.52;;;0.82;;
45236;SDS011;30973;51.442;3.580;2023-04-03T14:59:49;3.22;;;0.90;;
45236;SDS011;30973;51.442;3.580;2023-04-03T15:04:49;1.65;;;0.70;;
45236;SDS011;30973;51.442;3.580;2023-04-03T15:07:18;2.03;;;0.77;;
45236;SDS011;30973;51.442;3.580;2023-04-03T15:09:45;2.67;;;0.80;;
45236;SDS011;30973;51.442;3.580;2023-04-03T15:12:12;1.25;;;0.77;;
45236;SDS011;30973;51.442;3.580;2023-04-03T15:14:40;1.10;;;0.60;;
45236;SDS011;30973;51.442;3.580;2023-04-03T15:17:19;1.58;;;0.75;;
45236;SDS011;30973;51.442;3.580;2023-04-03T15:19:47;3.65;;;1.10;;
45236;SDS011;30973;51.442;3.580;2023-04-03T15:22:15;2.25;;;0.70;;
45236;SDS011;30973;51.442;3.580;2023-04-03T15:24:42;1.30;;;0.68;;
45236;SDS011;30973;51.442;3.580;2023-04-03T15:27:09;1.25;;;0.80;;
45236;SDS011;30973;51.442;3.580;2023-04-03T15:29:37;1.30;;;0.70;;
45236;SDS011;30973;51.442;3.580;2023-04-03T15:32:05;1.80;;;0.80;;
45236;SDS011;30973;51.442;3.580;2023-04-03T15:34:32;1.50;;;0.80;;
45236;SDS011;30973;51.442;3.580;2023-04-03T15:36:59;2.85;;;1.10;;
45236;SDS011;30973;51.442;3.580;2023-04-03T15:39:27;1.58;;;0.80;;
45236;SDS011;30973;51.442;3.580;2023-04-03T15:41:54;4.32;;;1.00;;
45236;SDS011;30973;51.442;3.580;2023-04-03T15:44:21;6.88;;;1.10;;
45236;SDS011;30973;51.442;3.580;2023-04-03T15:46:48;1.92;;;0.95;;
45236;SDS011;30973;51.442;3.580;2023-04-03T15:49:18;2.03;;;0.85;;
45236;SDS011;30973;51.442;3.580;2023-04-03T15:51:45;1.15;;;0.60;;
45236;SDS011;30973;51.442;3.580;2023-04-03T15:54:12;1.75;;;0.93;;
45236;SDS011;30973;51.442;3.580;2023-04-03T15:56:39;2.95;;;1.02;;
45236;SDS011;30973;51.442;3.580;2023-04-03T15:59:06;3.13;;;0.95;;
45236;SDS011;30973;51.442;3.580;2023-04-03T16:01:33;3.83;;;1.00;;
45236;SDS011;30973;51.442;3.580;2023-04-03T16:04:00;1.50;;;0.70;;
45236;SDS011;30973;51.442;3.580;2023-04-03T16:06:27;3.72;;;0.98;;
45236;SDS011;30973;51.442;3.580;2023-04-03T16:08:56;2.72;;;1.13;;
45236;SDS011;30973;51.442;3.580;2023-04-03T16:11:24;1.85;;;1.10;;
45236;SDS011;30973;51.442;3.580;2023-04-03T16:13:52;1.58;;;1.02;;
45236;SDS011;30973;51.442;3.580;2023-04-03T16:16:19;1.45;;;0.82;;
45236;SDS011;30973;51.442;3.580;2023-04-03T16:18:46;4.05;;;1.15;;
45236;SDS011;30973;51.442;3.580;2023-04-03T16:21:13;1.85;;;0.98;;
45236;SDS011;30973;51.442;3.580;2023-04-03T16:23:41;3.00;;;1.10;;